Home > Products > Valid Products > TAF

000
FTUS45 KRIW 190500
TAFCPR
TAF
KCPR 190523Z 1906/2006 36006KT P6SM BKN100
     FM190900 VRB10G20KT P6SM VCTS SCT070CB BKN090
     FM191400 28008KT P6SM VCSH BKN080
     FM191800 29011KT P6SM SCT080 BKN120
     FM200000 01011KT P6SM SCT110=



000
FTUS45 KRIW 190500
TAFJAC
TAF
KJAC 190523Z 1906/2006 21007KT P6SM SCT100 BKN180
     FM190900 VRB05KT P6SM SCT100
     FM191800 21010G16KT P6SM SCT090
     FM200100 20006KT P6SM FEW100
     FM200500 36006KT P6SM FEW110
      AMD LTD TO CLD VIS AND WIND=



000
FTUS45 KRIW 190500
TAFLND
TAF
KLND 190523Z 1906/2006 31008G18KT P6SM VCSH SCT070 BKN100
     FM191000 26010KT P6SM VCSH SCT070 BKN100
     FM191400 25007KT P6SM SCT080 BKN110
     FM192000 28011KT P6SM SCT100
     FM200200 25008KT P6SM FEW110=



000
FTUS45 KRIW 190500
TAFBPI
TAF
KBPI 190523Z 1906/2006 34012G22KT P6SM VCTS SCT060CB BKN090
     FM191000 35005KT P6SM BKN100
     FM191800 31010KT P6SM SCT100
     FM200100 35006KT P6SM FEW110=



000
FTUS45 KRIW 190500
TAFRIW
TAF
KRIW 190523Z 1906/2006 34010G20KT P6SM VCSH SCT070 BKN100
     FM191000 31010KT P6SM VCSH SCT070 BKN100
     FM191400 29009KT P6SM SCT080 BKN110
     FM191900 30013KT P6SM SCT100
     FM200200 35010KT P6SM FEW110=



000
FTUS45 KRIW 190500
TAFWRL
TAF
KWRL 190523Z 1906/2006 01008KT P6SM VCSH SCT070 BKN100
     FM191200 VRB06KT P6SM SCT080 BKN120
     FM191600 34006KT P6SM SCT110
     FM200500 VRB05KT P6SM FEW120=



000
FTUS45 KRIW 190500
TAFRKS
TAF
KRKS 190523Z 1906/2006 25010KT P6SM VCTS SCT060CB BKN090
     FM191200 26011KT P6SM VCSH SCT060 BKN080
     FM191700 27012KT P6SM FEW070 BKN110
     FM191900 27012G22KT P6SM SCT110
     FM200100 30010KT P6SM SCT120=



000
FTUS45 KRIW 190500
TAFCOD
TAF
KCOD 190523Z 1906/2006 30006KT P6SM SCT070 BKN110
     FM191600 03006KT P6SM SCT060 SCT090
     FM200300 21006KT P6SM SCT100
      AMD LTD TO CLD VIS AND WIND=



000
FTUS45 KRIW 190300 AAA
TAFCOD
TAF AMD
KCOD 190309Z 1903/1924 VRB06G16KT P6SM VCSH SCT060 BKN090
     FM190800 30008KT P6SM SCT070 BKN100
     FM191500 35007KT P6SM BKN120=



000
FTUS45 KRIW 190300 AAA
TAFBPI
TAF AMD
KBPI 190307Z 1903/1924 33012G22KT P6SM VCSH SCT060 BKN100
     FM191000 35005KT P6SM BKN100
     FM191800 31010KT P6SM SCT100=



000
FTUS45 KRIW 182300
TAFRKS
TAF
KRKS 182332Z 1900/1924 21012G20KT P6SM FEW120 SCT250
     FM190200 22006KT P6SM SCT100 BKN150
     FM190900 32008KT P6SM VCSH BKN100
     FM191400 27008KT P6SM BKN100
     FM192000 30011KT P6SM BKN100=



000
FTUS45 KRIW 182300
TAFWRL
TAF
KWRL 182332Z 1900/1924 36006KT P6SM FEW120 SCT250
     FM190200 VRB11KT P6SM VCSH SCT100 BKN150
     FM190400 VRB06KT P6SM VCSH BKN100
     FM190600 VRB06KT P6SM BKN100=



000
FTUS45 KRIW 182300
TAFRIW
TAF
KRIW 182332Z 1900/1924 22011KT P6SM SCT110
     FM190300 33007KT P6SM VCSH SCT100 BKN150
     FM191200 22006KT P6SM BKN100=



000
FTUS45 KRIW 182300
TAFJAC
TAF
KJAC 182332Z 1900/1924 VRB10G20KT P6SM VCTS SCT060CB OVC100
     FM190300 19006KT P6SM VCSH FEW060 BKN090
     FM190800 VRB05KT P6SM VCSH SCT050 BKN060
     FM191600 25007KT P6SM SCT070=



000
FTUS45 KRIW 182300
TAFCPR
TAF
KCPR 182332Z 1900/1924 24014G22KT P6SM SCT120
     FM190100 24011KT P6SM SCT120
     FM191000 24007KT P6SM VCSH BKN100
     FM191600 25011KT P6SM BKN100
     FM192200 29011KT P6SM VCSH BKN100=



000
FTUS45 KRIW 182300
TAFCOD
TAF
KCOD 182332Z 1900/1924 VRB06KT P6SM VCSH SCT100 BKN150
     FM190300 19006KT P6SM BKN150
     FM191500 35007KT P6SM BKN120=



000
FTUS45 KRIW 182300
TAFBPI
TAF
KBPI 182332Z 1900/1924 26011KT P6SM VCSH BKN100
     FM190400 35005KT P6SM VCSH BKN100
     FM191200 VRB06KT P6SM SCT080=



000
FTUS45 KRIW 182300
TAFLND
TAF
KLND 182332Z 1900/1924 21011KT P6SM SCT120
     FM190300 23006KT P6SM VCSH SCT100 BKN150
     FM190900 VRB05KT P6SM VCSH BKN100
     FM191200 28006KT P6SM BKN100=



000
FTUS45 KRIW 181700
TAFWRL
TAF
KWRL 181720Z 1818/1918 VRB05KT P6SM FEW120 SCT250
     FM190200 VRB11KT P6SM VCSH SCT100 BKN150
     FM190400 VRB06KT P6SM VCSH BKN100
     FM190600 VRB06KT P6SM BKN100=



000
FTUS45 KRIW 181700
TAFCOD
TAF
KCOD 181720Z 1818/1918 15006KT P6SM SCT100
     FM182100 VRB06KT P6SM VCSH SCT100 BKN150
     FM190300 19006KT P6SM BKN150
     FM191500 35007KT P6SM BKN120=



000
FTUS45 KRIW 181700
TAFCPR
TAF
KCPR 181720Z 1818/1918 24014G22KT P6SM SCT250
     FM190100 24011KT P6SM SCT120
     FM191000 24007KT P6SM BKN100
     FM191600 25011KT P6SM BKN100=



000
FTUS45 KRIW 181700
TAFRIW
TAF
KRIW 181720Z 1818/1918 VRB05KT P6SM SCT250
     FM182000 20008KT P6SM SCT110
     FM190300 33007KT P6SM VCSH SCT100 BKN150
     FM191200 22006KT P6SM BKN100=



000
FTUS45 KRIW 181700
TAFLND
TAF
KLND 181720Z 1818/1918 VRB05KT P6SM SCT250
     FM182000 24009KT P6SM SCT120
     FM190300 23006KT P6SM VCSH SCT100 BKN150
     FM190900 VRB05KT P6SM VCSH BKN100
     FM191200 28006KT P6SM BKN100=



000
FTUS45 KRIW 181700
TAFBPI
TAF
KBPI 181720Z 1818/1918 VRB05KT P6SM SCT110
     FM181900 20007KT P6SM SCT100
     FM190000 26007KT P6SM VCSH SCT100 BKN140
     FM190400 35005KT P6SM VCSH BKN100
     FM191200 VRB06KT P6SM SCT080=



000
FTUS45 KRIW 181700
TAFRKS
TAF
KRKS 181720Z 1818/1918 15006KT P6SM SKC
     FM181900 23012G18KT P6SM FEW120 SCT250
     FM190200 22006KT P6SM SCT100 BKN150
     FM190900 32008KT P6SM VCSH BKN100=



000
FTUS45 KRIW 181700
TAFJAC
TAF
KJAC 181720Z 1818/1918 20010G15KT P6SM VCTS SCT060CB OVC100
     FM190300 19006KT P6SM VCSH FEW060 BKN090
     FM190800 VRB05KT P6SM VCSH SCT050 BKN060
     FM191600 25007KT P6SM SCT070=



000
FTUS45 KRIW 181100
TAFRIW
TAF
KRIW 181129Z 1812/1912 30007KT P6SM SCT250
     FM181400 VRB05KT P6SM SCT250
     FM182000 21008KT P6SM SCT110
     FM190300 30007KT P6SM VCSH SCT100 BKN150=



000
FTUS45 KRIW 181100
TAFLND
TAF
KLND 181129Z 1812/1912 VRB05KT P6SM SCT250
     FM182000 24009KT P6SM SCT120
     FM190300 23006KT P6SM VCSH SCT100 BKN150
     FM190900 VRB05KT P6SM VCSH BKN100=



000
FTUS45 KRIW 181100
TAFWRL
TAF
KWRL 181129Z 1812/1912 VRB05KT P6SM FEW120 SCT250
     FM190300 VRB06KT P6SM VCSH SCT100 BKN150=



000
FTUS45 KRIW 181100
TAFCOD
TAF
KCOD 181129Z 1812/1912 21006KT P6SM SCT120 BKN250
     FM181700 15006KT P6SM SCT100
     FM182100 VRB06KT P6SM VCSH SCT100 BKN150
      AMD LTD TO CLD VIS AND WIND=



000
FTUS45 KRIW 181100
TAFJAC
TAF
KJAC 181129Z 1812/1912 VRB04KT P6SM VCSH SCT080 OVC120
     FM181800 20010G15KT P6SM VCTS SCT060CB OVC100
     FM190300 VRB05KT P6SM VCSH FEW060 BKN090
      AMD LTD TO CLD VIS AND WIND=



000
FTUS45 KRIW 181100
TAFRKS
TAF
KRKS 181129Z 1812/1912 15006KT P6SM SKC
     FM181900 23012G18KT P6SM FEW120 SCT250
     FM190200 20008KT P6SM SCT100 BKN150
     FM190700 VRB05KT P6SM VCSH BKN100=



000
FTUS45 KRIW 181100
TAFBPI
TAF
KBPI 181129Z 1812/1912 VRB05KT P6SM SCT110
     FM181900 18006KT P6SM SCT100
     FM190000 VRB06KT P6SM VCSH SCT100 BKN140
     FM190600 35005KT P6SM VCSH BKN100=



000
FTUS45 KRIW 181100
TAFCPR
TAF
KCPR 181129Z 1812/1912 25006KT P6SM SKC
     FM181600 24014G22KT P6SM SCT250
     FM190100 24011KT P6SM SCT120
     FM191000 24007KT P6SM BKN110=



000
FTUS45 KRIW 180500
TAFBPI
TAF
KBPI 180525Z 1806/1906 VRB05KT P6SM SCT110
     FM181900 18006KT P6SM SCT100
     FM190100 VRB06KT P6SM SCT100 BKN140=



000
FTUS45 KRIW 180500
TAFLND
TAF
KLND 180525Z 1806/1906 VRB05KT P6SM SCT120
     FM182000 24009KT P6SM SCT100 SCT140
     FM190300 23006KT P6SM SCT100 BKN140=



000
FTUS45 KRIW 180500
TAFRIW
TAF
KRIW 180525Z 1806/1906 35007KT P6SM SCT120
     FM181400 VRB05KT P6SM SCT120
     FM182000 21008KT P6SM SCT110
     FM190300 30007KT P6SM SCT110 BKN130=



000
FTUS45 KRIW 180500
TAFWRL
TAF
KWRL 180525Z 1806/1906 VRB05KT P6SM SCT120
     FM182100 VRB05KT P6SM SCT110
     FM190500 VRB06KT P6SM VCSH BKN110=



000
FTUS45 KRIW 180500
TAFJAC
TAF
KJAC 180525Z 1806/1906 VRB04KT P6SM SCT100
     FM182100 21009KT P6SM VCSH SCT090 BKN130
     FM190300 VRB05KT P6SM VCSH FEW060 BKN090
      AMD LTD TO CLD VIS AND WIND=



000
FTUS45 KRIW 180500
TAFCOD
TAF
KCOD 180525Z 1806/1906 21006KT P6SM FEW120
     FM181700 15006KT P6SM SCT100
     FM190100 VRB06KT P6SM VCSH BKN100
      AMD LTD TO CLD VIS AND WIND=



000
FTUS45 KRIW 180500
TAFRKS
TAF
KRKS 180525Z 1806/1906 20005KT P6SM FEW110
     FM181900 21011KT P6SM SCT100
     FM190200 20008KT P6SM SCT100 BKN140=



000
FTUS45 KRIW 180500
TAFCPR
TAF
KCPR 180525Z 1806/1906 25006KT P6SM SCT120
     FM181600 24014G22KT P6SM SCT120
     FM190100 24011KT P6SM SCT120=



000
FTUS45 KRIW 172300
TAFLND
TAF
KLND 172326Z 1800/1824 26008KT P6SM VCSH SCT050 BKN110
     FM180230 VRB06KT P6SM SCT110=



000
FTUS45 KRIW 172300
TAFCPR
TAF
KCPR 172326Z 1800/1824 33007KT P6SM VCSH SCT060 BKN150
     FM180200 VRB05KT P6SM SCT110
     FM180700 24009KT P6SM SCT120
     FM181700 23014G22KT P6SM SCT120=



000
FTUS45 KRIW 172300
TAFBPI
TAF
KBPI 172326Z 1800/1824 VRB10G15KT P6SM VCSH SCT050 BKN100
     FM180200 35006KT P6SM SCT100 SCT140
     FM180500 VRB06KT P6SM SCT150=



000
FTUS45 KRIW 172300
TAFJAC
TAF
KJAC 172326Z 1800/1824 21010KT P6SM VCSH SCT050 BKN120
     FM180230 VRB06KT P6SM SCT100 BKN140
     FM180500 36006KT P6SM SCT110
      AMD LTD TO CLD VIS AND WIND=



000
FTUS45 KRIW 172300
TAFCOD
TAF
KCOD 172326Z 1800/1824 17010G18KT P6SM VCSH SCT060 BKN110
     FM180230 VRB06KT P6SM SCT110
     FM180500 20006KT P6SM SCT120
      AMD LTD TO CLD VIS AND WIND=



000
FTUS45 KRIW 172300
TAFRIW
TAF
KRIW 172326Z 1800/1824 30008G16KT P6SM VCSH BKN120
     FM180300 30009KT P6SM SCT120=



000
FTUS45 KRIW 172300
TAFWRL
TAF
KWRL 172326Z 1800/1824 VRB05KT P6SM BKN120
     FM180400 VRB05KT P6SM SCT120=



000
FTUS45 KRIW 172300
TAFRKS
TAF
KRKS 172326Z 1800/1824 29010KT P6SM VCSH SCT050 BKN120
     FM180100 25009KT P6SM SCT110
     FM180500 20006KT P6SM FEW120=



000
FTUS45 KRIW 171700
TAFRKS
TAF
KRKS 171720Z 1718/1818 27012G20KT P6SM VCSH SCT050 BKN120
     FM180100 25009KT P6SM SCT110
     FM180500 20006KT P6SM FEW120=



000
FTUS45 KRIW 171700
TAFBPI
TAF
KBPI 171720Z 1718/1818 VRB06KT P6SM VCTS SCT050CB BKN100
      TEMPO 1718/1720 VRB15G30KT 5SM -TSRA SCT030 BKN050CB BKN100
     FM172100 VRB10G15KT P6SM VCSH SCT050 BKN100
     FM180200 35006KT P6SM SCT100 SCT140
     FM180500 VRB06KT P6SM SCT150=



000
FTUS45 KRIW 171700
TAFJAC
TAF
KJAC 171720Z 1718/1818 21012KT P6SM VCTS SCT050CB BKN120
     FM180230 VRB06KT P6SM SCT100 BKN140
     FM180500 36006KT P6SM SCT110
      AMD LTD TO CLD VIS AND WIND=



000
FTUS45 KRIW 171700
TAFWRL
TAF
KWRL 171720Z 1718/1818 VRB05KT P6SM SCT120
     FM172300 VRB05KT P6SM BKN120
     FM180400 VRB05KT P6SM SCT120=



000
FTUS45 KRIW 171700
TAFCPR
TAF
KCPR 171720Z 1718/1818 24012KT P6SM VCSH SCT060 BKN150
     FM172200 27010KT P6SM SCT120 BKN180
     FM180200 VRB05KT P6SM SCT110
     FM180700 24009KT P6SM SCT120
     FM181700 23014G22KT P6SM SCT120=



000
FTUS45 KRIW 171700
TAFCOD
TAF
KCOD 171720Z 1718/1818 23009KT P6SM SCT120
     FM172100 05007KT P6SM VCSH SCT060 BKN110
     FM180230 VRB06KT P6SM SCT110
     FM180500 20006KT P6SM SCT120
      AMD LTD TO CLD VIS AND WIND=



000
FTUS45 KRIW 171700
TAFRIW
TAF
KRIW 171720Z 1718/1818 30012G20KT P6SM VCTS SCT050CB BKN120
      TEMPO 1718/1721 VRB15G30KT 5SM -TSRA SCT030 BKN050CB
     FM172100 30012KT P6SM VCSH SCT050 BKN120
     FM180100 28008G16KT P6SM VCSH BKN120
     FM180300 30009KT P6SM SCT120=



000
FTUS45 KRIW 171700
TAFLND
TAF
KLND 171720Z 1718/1818 VRB10G15KT P6SM VCTS SCT050CB BKN100
      TEMPO 1718/1721 VRB15G30KT 5SM -TSRA SCT030 BKN050CB BKN100
     FM172100 VRB06G16KT P6SM VCSH SCT050 BKN110
     FM180230 VRB06KT P6SM SCT110=



000
FTUS45 KRIW 171300 AAA
TAFBPI
TAF AMD
KBPI 171345Z 1714/1812 VRB06KT P6SM VCTS SCT050CB BKN100
      TEMPO 1714/1716 VRB15G30KT 5SM -TSRA SCT030 BKN050CB BKN100
     FM171800 VRB10G15KT P6SM VCSH BKN100
     FM180200 35006KT P6SM SCT100 SCT140
     FM180500 VRB06KT P6SM FEW110=



000
FTUS45 KRIW 171300 AAB
TAFLND
TAF AMD
KLND 171344Z 1714/1812 VRB10G15KT P6SM VCTS SCT050CB BKN100
      TEMPO 1714/1716 VRB15G30KT 5SM -TSRA SCT030 BKN050CB BKN100
     FM171700 VRB05KT P6SM SCT100
     FM172100 VRB06G16KT P6SM VCSH BKN110
     FM180230 VRB06KT P6SM SCT110=



000
FTUS45 KRIW 171300 AAA
TAFRIW
TAF AMD
KRIW 171342Z 1714/1812 30012G20KT P6SM VCTS SCT050CB BKN120
      TEMPO 1714/1716 VRB15G30KT 5SM -TSRA SCT030 BKN050CB
     FM171700 30012KT P6SM VCSH SCT050 BKN120
     FM172300 28008G16KT P6SM VCSH BKN120
     FM180230 30009KT P6SM SCT120=



000
FTUS45 KRIW 171200 AAA
TAFLND
TAF AMD
KLND 171248Z 1713/1812 VRB05KT P6SM FEW120
     FM171400 VRB10G15KT P6SM VCSH SCT100
     FM171700 VRB05KT P6SM SCT100
     FM172100 VRB06G16KT P6SM VCSH BKN110
     FM180230 VRB06KT P6SM SCT110=



000
FTUS45 KRIW 171100
TAFCOD
TAF
KCOD 171121Z 1712/1812 20006KT P6SM FEW120
     FM171700 03007KT P6SM FEW120
     FM172100 05007KT P6SM VCSH BKN110
     FM180230 VRB06KT P6SM SCT110
     FM180500 20006KT P6SM SCT120
      AMD LTD TO CLD VIS AND WIND=



000
FTUS45 KRIW 171100
TAFCPR
TAF
KCPR 171121Z 1712/1812 26008KT P6SM VCSH SCT120
     FM171400 24008KT P6SM FEW120 SCT250
     FM172000 27010KT P6SM SCT120
     FM172300 31011KT P6SM SCT110
     FM180200 VRB05KT P6SM SCT110
     FM180700 24006KT P6SM SCT120=



000
FTUS45 KRIW 171100
TAFRKS
TAF
KRKS 171121Z 1712/1812 21006KT P6SM FEW120
     FM172000 26010G20KT P6SM SCT110
     FM180100 25009KT P6SM SCT110
     FM180500 20006KT P6SM FEW120=



000
FTUS45 KRIW 171100
TAFWRL
TAF
KWRL 171121Z 1712/1812 VRB05KT P6SM SCT120
     FM172300 VRB05KT P6SM BKN120
     FM180400 VRB05KT P6SM SCT120=



000
FTUS45 KRIW 171100
TAFLND
TAF
KLND 171121Z 1712/1812 VRB05KT P6SM SCT120
     FM172100 VRB06G16KT P6SM VCSH BKN110
     FM180230 VRB06KT P6SM SCT110=



000
FTUS45 KRIW 171100
TAFRIW
TAF
KRIW 171121Z 1712/1812 VRB05KT P6SM SCT120
     FM172300 28008G16KT P6SM VCSH BKN120
     FM180230 30009KT P6SM SCT120=



000
FTUS45 KRIW 171100
TAFJAC
TAF
KJAC 171121Z 1712/1812 VRB05KT P6SM VCTS SCT080CB BKN120
     FM171500 VRB06KT P6SM VCSH SCT100 BKN150
     FM172000 21011KT P6SM VCTS SCT080CB BKN150
     FM180230 VRB06KT P6SM SCT100 BKN140
     FM180500 36006KT P6SM SCT110
      AMD LTD TO CLD VIS AND WIND=



000
FTUS45 KRIW 171100
TAFBPI
TAF
KBPI 171121Z 1712/1812 VRB06KT P6SM VCSH SCT100
     FM172100 VRB10G15KT P6SM VCSH BKN100
     FM180200 35006KT P6SM SCT100 SCT140
     FM180500 VRB06KT P6SM FEW110=



000
FTUS45 KRIW 170500
TAFWRL
TAF
KWRL 170521Z 1706/1806 VRB05KT P6SM SCT120
     FM172300 VRB05KT P6SM BKN120
     FM180400 VRB05KT P6SM SCT120=



000
FTUS45 KRIW 170500
TAFRKS
TAF
KRKS 170521Z 1706/1806 21006KT P6SM FEW120
     FM172000 26010G20KT P6SM SCT110
     FM180100 25009KT P6SM SCT110
     FM180500 20006KT P6SM FEW120=



000
FTUS45 KRIW 170500
TAFRIW
TAF
KRIW 170521Z 1706/1806 30011KT P6SM SCT120
     FM170900 28007KT P6SM SCT120
     FM171500 VRB05KT P6SM SCT120
     FM172300 28008G16KT P6SM VCSH BKN120
     FM180230 30009KT P6SM SCT120=



000
FTUS45 KRIW 170500
TAFCOD
TAF
KCOD 170521Z 1706/1806 20006KT P6SM FEW120
     FM171700 03007KT P6SM FEW120
     FM172300 02006KT P6SM VCSH BKN110
     FM180230 VRB06KT P6SM SCT110
     FM180500 29006KT P6SM SCT120
      AMD LTD TO CLD VIS AND WIND=



000
FTUS45 KRIW 170500
TAFJAC
TAF
KJAC 170521Z 1706/1806 36005KT P6SM SCT110
     FM171300 VRB05KT P6SM FEW110
     FM172000 21011KT P6SM SCT100 SCT140
     FM172300 21010KT P6SM VCSH BKN100
     FM180230 VRB06KT P6SM SCT100 BKN140
     FM180500 36006KT P6SM SCT110
      AMD LTD TO CLD VIS AND WIND=



000
FTUS45 KRIW 170500
TAFCPR
TAF
KCPR 170521Z 1706/1806 24006KT P6SM VCSH BKN120
      TEMPO 1706/1707 27018G28KT -SHRA
     FM170900 24006KT P6SM SCT120
     FM171800 27012KT P6SM SCT110
     FM172300 31011KT P6SM SCT110
     FM180200 VRB05KT P6SM SCT110=



000
FTUS45 KRIW 170500
TAFLND
TAF
KLND 170521Z 1706/1806 VRB05KT P6SM SCT120
     FM172200 VRB06G16KT P6SM VCSH BKN110
     FM180230 VRB06KT P6SM SCT110=



000
FTUS45 KRIW 170500
TAFBPI
TAF
KBPI 170521Z 1706/1806 VRB06KT P6SM FEW110
     FM172200 30010KT P6SM VCSH BKN100
     FM180200 35006KT P6SM SCT100 SCT140
     FM180500 VRB06KT P6SM FEW110=



000
FTUS45 KRIW 162300
TAFCPR
TAF
KCPR 162332Z 1700/1724 29012G22KT P6SM SCT120
     FM170200 VRB06KT P6SM SCT120
     FM171700 21011KT P6SM SCT120=



000
FTUS45 KRIW 162300
TAFJAC
TAF
KJAC 162332Z 1700/1724 VRB11G17KT P6SM VCTS SCT070CB BKN120
     FM170100 VRB06KT P6SM BKN120
     FM170600 36005KT P6SM SCT110
     FM172000 21011KT P6SM BKN100
      AMD LTD TO CLD VIS AND WIND=



000
FTUS45 KRIW 162300
TAFWRL
TAF
KWRL 162332Z 1700/1724 36006KT P6SM SCT120 SCT150
     FM170300 VRB06KT P6SM SCT120=



000
FTUS45 KRIW 162300
TAFLND
TAF
KLND 162332Z 1700/1724 VRB05KT P6SM VCSH SCT120
     FM170300 24011KT P6SM FEW120
     FM170700 VRB06KT P6SM FEW120
     FM171900 VRB06KT P6SM SCT120=



000
FTUS45 KRIW 162300
TAFBPI
TAF
KBPI 162332Z 1700/1724 30010KT P6SM VCSH SCT100 BKN130
     FM170300 VRB06KT P6SM SCT120
     FM172100 30010KT P6SM VCSH SCT100=



000
FTUS45 KRIW 162300
TAFCOD
TAF
KCOD 162332Z 1700/1724 VRB10G16KT P6SM VCSH SCT100 BKN150
     FM170500 21006KT P6SM SCT120
     FM171900 VRB06KT P6SM SCT120
      AMD LTD TO CLD VIS AND WIND=



000
FTUS45 KRIW 162300
TAFRKS
TAF
KRKS 162332Z 1700/1724 29010G18KT P6SM VCSH SCT110
     FM170200 23008KT P6SM SCT120
     FM172000 26010G16KT P6SM SCT120=



000
FTUS45 KRIW 162300
TAFRIW
TAF
KRIW 162332Z 1700/1724 32010KT P6SM VCSH SCT120 SCT180
     FM170500 VRB06KT P6SM FEW120
     FM171800 09008KT P6SM SCT100=



000
FTUS45 KRIW 161700
TAFRKS
TAF
KRKS 161720Z 1618/1718 23008KT P6SM FEW120
     FM161900 25010G18KT P6SM SCT110
     FM170200 24008KT P6SM SCT120=



000
FTUS45 KRIW 161700
TAFWRL
TAF
KWRL 161720Z 1618/1718 VRB05KT P6SM FEW120
     FM162200 36006KT P6SM SCT120 SCT150
     FM170300 VRB05KT P6SM SCT120=



000
FTUS45 KRIW 161700
TAFCOD
TAF
KCOD 161720Z 1618/1718 VRB06KT P6SM FEW120
     FM170000 VRB10G16KT P6SM VCSH SCT100 BKN150
     FM170400 21006KT P6SM SCT120 SCT150
      AMD LTD TO CLD VIS AND WIND=



000
FTUS45 KRIW 161700
TAFJAC
TAF
KJAC 161720Z 1618/1718 VRB05KT P6SM VCSH SCT110 BKN150
     FM161900 VRB11G17KT P6SM VCSH SCT080 BKN120
     FM170000 VRB05KT P6SM BKN120
     FM170600 36005KT P6SM SCT110
      AMD LTD TO CLD VIS AND WIND=



000
FTUS45 KRIW 161700
TAFBPI
TAF
KBPI 161720Z 1618/1718 VRB05KT P6SM SCT120
     FM162000 29010KT P6SM VCSH SCT100 BKN130
     FM170300 34008KT P6SM SCT120=



000
FTUS45 KRIW 161700
TAFLND
TAF
KLND 161720Z 1618/1718 VRB06KT P6SM FEW120
     FM161900 VRB05KT P6SM SCT120
     FM170300 24007KT P6SM FEW120=



000
FTUS45 KRIW 161700
TAFCPR
TAF
KCPR 161720Z 1618/1718 24007KT P6SM FEW120
     FM161830 24012G18KT P6SM SCT120
     FM162100 29013G18KT P6SM SCT120
     FM170200 VRB06KT P6SM SCT120=



000
FTUS45 KRIW 161700
TAFRIW
TAF
KRIW 161720Z 1618/1718 VRB05KT P6SM FEW120 SCT180
     FM162200 03006KT P6SM SCT120 BKN180
     FM170500 VRB05KT P6SM FEW120=



000
FTUS45 KRIW 161100
TAFBPI
TAF
KBPI 161122Z 1612/1712 VRB05KT P6SM SCT120
     FM162100 29010KT P6SM VCSH SCT100 BKN130
     FM170200 34008KT P6SM SCT120=



000
FTUS45 KRIW 161100
TAFLND
TAF
KLND 161122Z 1612/1712 VRB06KT P6SM FEW120
     FM161900 VRB05KT P6SM SCT120
     FM170200 24007KT P6SM SCT120
     FM170600 VRB06KT P6SM FEW120=



000
FTUS45 KRIW 161100
TAFRKS
TAF
KRKS 161122Z 1612/1712 23008KT P6SM FEW120
     FM161900 25010G18KT P6SM SCT110
     FM170200 24008KT P6SM SCT120=



000
FTUS45 KRIW 161100
TAFCOD
TAF
KCOD 161122Z 1612/1712 21005KT P6SM FEW120
     FM161500 VRB06KT P6SM FEW120
     FM170000 VRB10G16KT P6SM VCSH SCT100 BKN150
     FM170300 21006KT P6SM SCT120 SCT150
      AMD LTD TO CLD VIS AND WIND=



000
FTUS45 KRIW 161100
TAFWRL
TAF
KWRL 161122Z 1612/1712 VRB05KT P6SM FEW120
     FM162200 36006KT P6SM SCT120 SCT150
     FM170300 VRB05KT P6SM SCT120=



000
FTUS45 KRIW 161100
TAFCPR
TAF
KCPR 161122Z 1612/1712 24007KT P6SM FEW120
     FM161800 24012G18KT P6SM SCT120
     FM162100 29013G18KT P6SM SCT120
     FM170100 36007KT P6SM SCT120
     FM170600 VRB05KT P6SM FEW120=



000
FTUS45 KRIW 161100
TAFJAC
TAF
KJAC 161122Z 1612/1712 36006KT P6SM SCT110
     FM161300 VRB05KT P6SM SCT110 BKN150
     FM161900 VRB12G20KT P6SM VCSH SCT080 BKN120
     FM170000 VRB05KT P6SM BKN120
     FM170600 36005KT P6SM SCT110
      AMD LTD TO CLD VIS AND WIND=



000
FTUS45 KRIW 161100
TAFRIW
TAF
KRIW 161122Z 1612/1712 29006KT P6SM FEW120
     FM161500 VRB05KT P6SM FEW120 SCT180
     FM162200 03006KT P6SM SCT120 BKN180
     FM170500 VRB05KT P6SM FEW120=



    US Dept of Commerce
    National Oceanic and Atmospheric Administration
    National Weather Service
    1325 East West Highway
    Silver Spring, MD 20910
    Page Author: NWS Internet Services Team
Disclaimer
Information Quality
Credits
Glossary
Privacy Policy
Freedom of Information Act (FOIA)
About Us
Career Opportunities